createdAt,value
2022-09-09T00:02:21.946Z,1.30
2022-09-09T00:05:06.128Z,1.80
2022-09-09T00:07:48.386Z,6.90
2022-09-09T00:10:30.908Z,2.72
2022-09-09T00:13:35.163Z,1.55
2022-09-09T00:16:17.373Z,2.15
2022-09-09T00:19:06.302Z,2.13
2022-09-09T00:21:44.463Z,1.38
2022-09-09T00:24:26.846Z,1.48
2022-09-09T00:27:07.502Z,5.40
2022-09-09T00:29:43.040Z,0.90
2022-09-09T00:32:18.409Z,2.42
2022-09-09T00:35:13.608Z,1.23
2022-09-09T00:37:41.208Z,0.85
2022-09-09T00:40:36.239Z,3.55
2022-09-09T00:43:31.470Z,3.47
2022-09-09T00:46:47.202Z,1.85
2022-09-09T00:49:22.981Z,1.77
2022-09-09T00:52:41.822Z,1.20
2022-09-09T00:55:17.063Z,2.63
2022-09-09T00:57:47.103Z,7.65
2022-09-09T01:00:36.428Z,6.60
2022-09-09T01:03:25.394Z,3.92
2022-09-09T01:06:27.844Z,1.65
2022-09-09T01:09:30.129Z,1.75
2022-09-09T01:12:25.698Z,1.75
2022-09-09T01:15:04.572Z,3.35
2022-09-09T01:17:38.606Z,3.78
2022-09-09T01:20:26.625Z,1.65
2022-09-09T01:23:53.732Z,4.80
2022-09-09T01:26:44.605Z,4.07
2022-09-09T01:29:16.814Z,3.67
2022-09-09T01:32:02.339Z,2.47
2022-09-09T01:34:41.263Z,2.40
2022-09-09T01:37:14.197Z,9.43
2022-09-09T01:39:46.130Z,2.83
2022-09-09T01:42:17.216Z,1.70
2022-09-09T01:44:47.961Z,3.50
2022-09-09T01:47:16.710Z,2.70
2022-09-09T01:49:43.867Z,1.40
2022-09-09T01:52:13.924Z,0.85
2022-09-09T01:54:41.638Z,4.07
2022-09-09T01:57:17.793Z,1.52
2022-09-09T02:00:09.557Z,3.30
2022-09-09T02:03:10.812Z,6.53
2022-09-09T02:06:09.945Z,3.50
2022-09-09T02:08:52.780Z,1.38
2022-09-09T02:11:26.948Z,8.05
2022-09-09T02:14:11.173Z,4.38
2022-09-09T02:16:58.304Z,2.22
2022-09-09T02:19:40.063Z,4.53
2022-09-09T02:22:07.569Z,1.95
2022-09-09T02:24:38.268Z,4.93
2022-09-09T02:27:10.114Z,5.13
2022-09-09T02:29:43.338Z,7.03
2022-09-09T02:32:16.614Z,2.42
2022-09-09T02:35:03.589Z,4.50
2022-09-09T02:37:39.980Z,1.13
2022-09-09T02:40:12.226Z,8.27
2022-09-09T02:42:44.405Z,1.48
2022-09-09T02:45:19.971Z,2.00
2022-09-09T02:48:27.143Z,2.20
2022-09-09T02:54:14.539Z,2.05
2022-09-09T02:56:52.507Z,2.67
2022-09-09T02:59:20.149Z,1.40
2022-09-09T03:01:47.976Z,1.23
2022-09-09T03:04:15.182Z,2.22
2022-09-09T03:06:42.487Z,1.48
2022-09-09T03:09:11.527Z,3.60
2022-09-09T03:11:39.501Z,1.88
2022-09-09T03:14:07.336Z,3.05
2022-09-09T03:16:35.593Z,2.38
2022-09-09T03:19:02.869Z,1.98
2022-09-09T03:21:30.235Z,3.30
2022-09-09T03:23:58.324Z,3.00
2022-09-09T03:26:28.662Z,1.98
2022-09-09T03:28:55.922Z,1.70
2022-09-09T03:31:23.555Z,2.90
2022-09-09T03:33:50.781Z,4.10
2022-09-09T03:36:18.665Z,2.70
2022-09-09T03:38:45.666Z,1.27
2022-09-09T03:41:13.844Z,4.90
2022-09-09T03:43:41.221Z,3.47
2022-09-09T03:46:08.476Z,4.00
2022-09-09T03:48:35.895Z,1.83
2022-09-09T03:51:04.104Z,4.95
2022-09-09T03:53:31.542Z,2.08
2022-09-09T03:56:01.783Z,1.75
2022-09-09T03:58:29.710Z,7.07
2022-09-09T04:01:15.691Z,1.63
2022-09-09T04:03:43.423Z,3.20
2022-09-09T04:06:14.440Z,12.70
2022-09-09T04:08:44.640Z,26.58
2022-09-09T04:11:11.771Z,16.85
2022-09-09T04:13:40.299Z,20.10
2022-09-09T04:16:14.569Z,21.80
2022-09-09T04:18:45.320Z,50.95
2022-09-09T04:21:13.399Z,28.55
2022-09-09T04:23:40.665Z,21.80
2022-09-09T04:26:08.343Z,27.65
2022-09-09T04:28:41.900Z,11.93
2022-09-09T04:31:15.777Z,10.95
2022-09-09T04:33:42.931Z,5.00
2022-09-09T04:36:14.550Z,6.25
2022-09-09T04:38:43.067Z,3.15
2022-09-09T04:41:14.577Z,7.03
2022-09-09T04:43:41.919Z,7.05
2022-09-09T04:46:09.087Z,4.88
2022-09-09T04:48:36.491Z,5.22
2022-09-09T04:51:07.585Z,6.30
2022-09-09T04:53:38.347Z,4.00
2022-09-09T04:56:16.961Z,6.55
2022-09-09T04:58:44.485Z,6.88
2022-09-09T05:01:13.306Z,5.75
2022-09-09T05:03:40.732Z,3.97
2022-09-09T05:06:20.457Z,2.03
2022-09-09T05:08:47.620Z,1.83
2022-09-09T05:11:24.430Z,3.72
2022-09-09T05:13:55.649Z,2.67
2022-09-09T05:16:23.876Z,3.33
2022-09-09T05:18:52.313Z,3.80
2022-09-09T05:21:22.429Z,5.07
2022-09-09T05:23:49.769Z,2.88
2022-09-09T05:26:22.930Z,2.97
2022-09-09T05:28:50.107Z,1.75
2022-09-09T05:31:19.351Z,3.28
2022-09-09T05:33:49.155Z,2.58
2022-09-09T05:36:22.096Z,3.50
2022-09-09T05:38:50.904Z,4.93
2022-09-09T05:41:18.777Z,3.22
2022-09-09T05:43:49.871Z,6.60
2022-09-09T05:46:19.277Z,2.97
2022-09-09T05:48:51.957Z,6.32
2022-09-09T05:51:27.553Z,6.32
2022-09-09T05:53:56.192Z,3.10
2022-09-09T05:56:28.704Z,4.78
2022-09-09T05:58:56.965Z,7.63
2022-09-09T06:01:33.932Z,9.55
2022-09-09T06:04:02.013Z,7.07
2022-09-09T06:06:38.172Z,5.38
2022-09-09T06:09:11.300Z,6.03
2022-09-09T06:11:45.368Z,5.82
2022-09-09T06:14:12.628Z,6.40
2022-09-09T06:16:40.131Z,7.40
2022-09-09T06:19:07.522Z,7.25
2022-09-09T06:21:41.871Z,6.45
2022-09-09T06:24:09.005Z,22.35
2022-09-09T06:26:42.544Z,7.78
2022-09-09T06:29:10.809Z,5.57
2022-09-09T06:31:38.839Z,5.30
2022-09-09T06:34:08.104Z,5.15
2022-09-09T06:36:38.777Z,7.07
2022-09-09T06:39:12.110Z,6.68
2022-09-09T06:41:42.102Z,6.10
2022-09-09T06:44:09.446Z,7.22
2022-09-09T06:46:36.751Z,7.35
2022-09-09T06:49:04.411Z,7.50
2022-09-09T06:51:43.592Z,8.50
2022-09-09T06:54:14.319Z,5.00
2022-09-09T06:56:44.126Z,7.32
2022-09-09T06:59:14.001Z,6.90
2022-09-09T07:01:50.316Z,11.30
2022-09-09T07:04:20.059Z,7.15
2022-09-09T07:06:50.649Z,5.88
2022-09-09T07:09:18.093Z,16.30
2022-09-09T07:11:52.604Z,6.30
2022-09-09T07:14:20.727Z,6.10
2022-09-09T07:16:48.102Z,10.18
2022-09-09T07:19:18.390Z,13.50
2022-09-09T07:21:46.204Z,9.10
2022-09-09T07:24:13.833Z,3.53
2022-09-09T07:26:41.776Z,2.40
2022-09-09T07:29:10.020Z,1.75
2022-09-09T07:31:40.975Z,2.72
2022-09-09T07:34:08.702Z,4.20
2022-09-09T07:36:39.574Z,4.70
2022-09-09T07:39:14.141Z,2.65
2022-09-09T07:41:45.297Z,4.70
2022-09-09T07:44:16.325Z,3.28
2022-09-09T07:46:46.228Z,3.97
2022-09-09T07:49:14.042Z,3.17
2022-09-09T07:51:45.396Z,4.20
2022-09-09T07:54:16.186Z,3.67
2022-09-09T07:56:47.820Z,7.57
2022-09-09T07:59:15.236Z,2.97
2022-09-09T08:01:55.462Z,4.20
2022-09-09T08:04:26.288Z,5.93
2022-09-09T08:07:00.871Z,6.43
2022-09-09T08:09:33.416Z,6.05
2022-09-09T08:12:02.050Z,6.43
2022-09-09T08:14:32.165Z,5.88
2022-09-09T08:17:02.655Z,7.82
2022-09-09T08:19:35.076Z,4.40
2022-09-09T08:22:04.019Z,2.88
2022-09-09T08:24:31.067Z,6.45
2022-09-09T08:26:58.187Z,4.05
2022-09-09T08:29:25.208Z,5.90
2022-09-09T08:31:58.824Z,3.58
2022-09-09T08:34:28.035Z,3.17
2022-09-09T08:36:58.102Z,2.47
2022-09-09T08:39:28.424Z,1.63
2022-09-09T08:42:14.950Z,2.90
2022-09-09T08:45:27.529Z,4.57
2022-09-09T08:48:06.530Z,2.75
2022-09-09T08:50:41.365Z,4.72
2022-09-09T08:53:39.108Z,5.13
2022-09-09T08:56:15.225Z,3.80
2022-09-09T08:58:52.105Z,1.83
2022-09-09T09:02:03.022Z,2.75
2022-09-09T09:05:04.173Z,7.40
2022-09-09T09:07:33.001Z,3.67
2022-09-09T09:10:41.846Z,1.83
2022-09-09T09:14:04.603Z,1.80
2022-09-09T09:16:58.711Z,6.00
2022-09-09T09:19:27.278Z,2.45
2022-09-09T09:22:23.236Z,1.27
2022-09-09T09:25:11.623Z,4.20
2022-09-09T09:28:06.817Z,1.83
2022-09-09T09:30:50.607Z,1.35
2022-09-09T09:33:51.540Z,1.38
2022-09-09T09:36:43.414Z,6.72
2022-09-09T09:41:58.782Z,2.63
2022-09-09T09:44:32.973Z,2.83
2022-09-09T09:47:07.970Z,7.03
2022-09-09T09:49:35.260Z,1.85
2022-09-09T09:52:04.824Z,2.70
2022-09-09T09:54:39.050Z,3.08
2022-09-09T09:57:16.444Z,1.10
2022-09-09T09:59:44.432Z,3.30
2022-09-09T10:02:14.359Z,1.60
2022-09-09T10:04:42.381Z,2.35
2022-09-09T10:07:22.045Z,2.10
2022-09-09T10:09:57.207Z,5.25
2022-09-09T10:13:13.655Z,1.63
2022-09-09T10:16:22.004Z,2.20
2022-09-09T10:19:07.745Z,2.15
2022-09-09T10:22:04.293Z,2.45
2022-09-09T10:25:21.185Z,2.85
2022-09-09T10:28:26.107Z,1.20
2022-09-09T10:31:18.371Z,1.95
2022-09-09T10:33:57.925Z,1.35
2022-09-09T10:36:30.564Z,3.15
2022-09-09T10:39:26.425Z,0.93
2022-09-09T10:42:13.794Z,2.60
2022-09-09T10:45:05.586Z,1.45
2022-09-09T10:47:52.086Z,2.50
2022-09-09T10:51:05.245Z,4.03
2022-09-09T10:53:46.038Z,1.30
2022-09-09T10:56:17.593Z,2.40
2022-09-09T10:59:15.422Z,2.45
2022-09-09T11:02:28.630Z,1.85
2022-09-09T11:05:05.634Z,2.13
2022-09-09T11:08:09.649Z,2.88
2022-09-09T11:11:14.880Z,5.22
2022-09-09T11:14:04.652Z,0.75
2022-09-09T11:16:49.231Z,0.68
2022-09-09T11:19:40.760Z,1.88
2022-09-09T11:22:30.726Z,3.70
2022-09-09T11:25:24.286Z,0.95
2022-09-09T11:28:32.225Z,1.02
2022-09-09T11:31:45.477Z,1.30
2022-09-09T11:34:40.218Z,1.67
2022-09-09T11:38:02.926Z,1.60
2022-09-09T11:40:32.955Z,0.85
2022-09-09T11:43:23.003Z,1.75
2022-09-09T11:46:01.036Z,0.60
2022-09-09T11:48:44.314Z,2.03
2022-09-09T11:51:29.508Z,0.47
2022-09-09T11:54:21.155Z,2.50
2022-09-09T11:56:48.382Z,1.05
2022-09-09T11:59:31.124Z,2.67
2022-09-09T12:02:19.826Z,2.58
2022-09-09T12:05:09.863Z,2.03
2022-09-09T12:07:43.845Z,1.17
2022-09-09T12:10:31.010Z,2.45
2022-09-09T12:13:10.836Z,0.57
2022-09-09T12:15:54.285Z,4.32
2022-09-09T12:18:37.765Z,3.22
2022-09-09T12:21:33.121Z,2.03
2022-09-09T12:24:37.603Z,2.75
2022-09-09T12:27:52.195Z,1.77
2022-09-09T12:30:19.736Z,0.82
2022-09-09T12:32:46.809Z,0.80
2022-09-09T12:35:29.433Z,4.80
2022-09-09T12:38:03.619Z,2.25
2022-09-09T12:40:36.203Z,2.00
2022-09-09T12:43:22.368Z,1.65
2022-09-09T12:45:57.713Z,4.28
2022-09-09T12:51:05.808Z,1.55
2022-09-09T12:53:40.769Z,1.75
2022-09-09T12:56:11.148Z,0.77
2022-09-09T12:58:49.364Z,2.05
2022-09-09T13:01:30.490Z,1.58
2022-09-09T13:03:58.181Z,0.65
2022-09-09T13:06:32.401Z,0.75
2022-09-09T13:09:03.096Z,4.00
2022-09-09T13:11:40.610Z,1.95
2022-09-09T13:14:26.901Z,2.33
2022-09-09T13:19:38.468Z,0.70
2022-09-09T13:22:20.841Z,2.83
2022-09-09T13:24:47.950Z,1.20
2022-09-09T13:27:39.971Z,0.98
2022-09-09T13:30:29.353Z,2.90
2022-09-09T13:33:15.487Z,4.57
2022-09-09T13:38:39.254Z,0.40
2022-09-09T13:41:10.151Z,1.50
2022-09-09T13:43:44.294Z,3.15
2022-09-09T13:46:34.250Z,1.35
2022-09-09T13:49:23.195Z,3.67
2022-09-09T13:52:05.982Z,3.15
2022-09-09T13:54:33.228Z,1.00
2022-09-09T13:57:02.141Z,1.10
2022-09-09T13:59:48.009Z,3.35
2022-09-09T14:02:20.827Z,1.55
2022-09-09T14:04:51.779Z,0.82
2022-09-09T14:07:19.912Z,1.77
2022-09-09T14:09:50.914Z,2.60
2022-09-09T14:12:19.379Z,2.45
2022-09-09T14:14:46.468Z,2.17
2022-09-09T14:17:13.537Z,0.63
2022-09-09T14:19:40.720Z,1.38
2022-09-09T14:22:07.843Z,1.63
2022-09-09T14:24:35.067Z,4.93
2022-09-09T14:27:02.468Z,1.40
2022-09-09T14:29:29.519Z,2.03
2022-09-09T14:31:56.623Z,3.25
2022-09-09T14:34:23.743Z,1.75
2022-09-09T14:36:51.510Z,2.20
2022-09-09T14:39:18.596Z,2.15
2022-09-09T14:41:46.552Z,3.80
2022-09-09T14:44:13.607Z,2.25
2022-09-09T14:46:40.753Z,3.20
2022-09-09T14:49:11.782Z,1.90
2022-09-09T14:51:39.378Z,1.58
2022-09-09T14:54:06.683Z,2.53
2022-09-09T14:56:37.672Z,3.72
2022-09-09T14:59:05.537Z,1.70
2022-09-09T15:01:33.281Z,3.17
2022-09-09T15:04:06.263Z,2.28
2022-09-09T15:06:40.221Z,2.85
2022-09-09T15:09:07.438Z,2.22
2022-09-09T15:11:41.003Z,3.78
2022-09-09T15:14:13.054Z,4.18
2022-09-09T15:16:41.115Z,3.20
2022-09-09T15:19:11.517Z,1.17
2022-09-09T15:21:39.479Z,2.67
2022-09-09T15:24:09.828Z,5.25
2022-09-09T15:26:39.453Z,2.45
2022-09-09T15:29:09.123Z,2.50
2022-09-09T15:31:39.492Z,21.98
2022-09-09T15:34:08.787Z,11.40
2022-09-09T15:36:42.407Z,12.25
2022-09-09T15:39:18.088Z,3.72
2022-09-09T15:41:47.900Z,2.58
2022-09-09T15:44:16.768Z,3.10
2022-09-09T15:46:51.532Z,3.05
2022-09-09T15:49:26.343Z,5.65
2022-09-09T15:52:04.294Z,2.10
2022-09-09T15:54:37.542Z,3.80
2022-09-09T15:57:07.577Z,6.50
2022-09-09T15:59:35.574Z,2.97
2022-09-09T16:02:03.903Z,7.13
2022-09-09T16:04:32.182Z,2.78
2022-09-09T16:07:08.010Z,5.78
2022-09-09T16:09:38.924Z,17.70
2022-09-09T16:12:10.926Z,5.57
2022-09-09T16:14:38.042Z,8.07
2022-09-09T16:17:08.326Z,5.32
2022-09-09T16:19:35.922Z,7.05
2022-09-09T16:22:05.533Z,6.57
2022-09-09T16:24:35.891Z,6.22
2022-09-09T16:27:03.714Z,4.85
2022-09-09T16:29:34.377Z,6.10
2022-09-09T16:32:04.245Z,1.35
2022-09-09T16:34:35.105Z,3.70
2022-09-09T16:37:03.173Z,3.25
2022-09-09T16:39:30.432Z,4.68
2022-09-09T16:41:58.165Z,3.05
2022-09-09T16:44:27.204Z,2.13
2022-09-09T16:46:59.612Z,4.65
2022-09-09T16:49:35.181Z,1.58
2022-09-09T16:52:02.640Z,4.15
2022-09-09T16:54:30.458Z,1.40
2022-09-09T16:56:58.609Z,1.95
2022-09-09T16:59:25.846Z,4.78
2022-09-09T17:01:53.857Z,3.55
2022-09-09T17:04:26.461Z,2.80
2022-09-09T17:06:55.813Z,1.83
2022-09-09T17:09:24.166Z,1.77
2022-09-09T17:11:52.525Z,2.38
2022-09-09T17:14:23.403Z,3.30
2022-09-09T17:16:51.008Z,4.40
2022-09-09T17:19:18.374Z,2.58
2022-09-09T17:22:15.522Z,4.47
2022-09-09T17:24:39.661Z,2.42
2022-09-09T17:27:07.574Z,2.92
2022-09-09T17:29:36.945Z,1.80
2022-09-09T17:32:06.441Z,1.52
2022-09-09T17:34:37.532Z,3.80
2022-09-09T17:37:06.154Z,0.95
2022-09-09T17:39:34.210Z,2.90
2022-09-09T17:42:01.303Z,4.47
2022-09-09T17:44:29.813Z,2.08
2022-09-09T17:47:00.371Z,2.50
2022-09-09T17:49:31.142Z,1.35
2022-09-09T17:51:58.525Z,1.30
2022-09-09T17:54:28.850Z,1.80
2022-09-09T17:56:55.940Z,1.70
2022-09-09T17:59:25.243Z,2.45
2022-09-09T18:01:53.077Z,3.72
2022-09-09T18:04:20.968Z,1.90
2022-09-09T18:06:51.755Z,3.53
2022-09-09T18:09:23.614Z,3.15
2022-09-09T18:11:54.627Z,4.20
2022-09-09T18:14:26.142Z,1.27
2022-09-09T18:16:53.734Z,1.55
2022-09-09T18:19:25.028Z,4.25
2022-09-09T18:21:52.987Z,1.42
2022-09-09T18:24:22.590Z,3.25
2022-09-09T18:26:51.214Z,1.95
2022-09-09T18:29:24.327Z,1.20
2022-09-09T18:31:55.961Z,1.65
2022-09-09T18:34:26.072Z,1.42
2022-09-09T18:36:56.237Z,4.93
2022-09-09T18:39:29.681Z,2.28
2022-09-09T18:42:01.757Z,2.33
2022-09-09T18:44:33.848Z,3.22
2022-09-09T18:47:04.454Z,6.47
2022-09-09T18:49:33.502Z,2.25
2022-09-09T18:52:00.895Z,2.47
2022-09-09T18:54:31.602Z,3.08
2022-09-09T18:57:01.083Z,3.10
2022-09-09T18:59:29.291Z,1.90
2022-09-09T19:01:57.110Z,2.97
2022-09-09T19:04:26.378Z,4.22
2022-09-09T19:06:58.433Z,4.32
2022-09-09T19:09:31.817Z,2.35
2022-09-09T19:12:01.054Z,4.68
2022-09-09T19:14:29.256Z,2.15
2022-09-09T19:16:56.807Z,2.35
2022-09-09T19:19:29.256Z,5.57
2022-09-09T19:21:57.958Z,1.58
2022-09-09T19:24:32.323Z,2.03
2022-09-09T19:27:07.067Z,1.63
2022-09-09T19:29:42.933Z,4.43
2022-09-09T19:34:58.495Z,2.22
2022-09-09T19:37:25.917Z,6.40
2022-09-09T19:39:53.343Z,4.55
2022-09-09T19:42:21.491Z,5.88
2022-09-09T19:44:50.169Z,2.75
2022-09-09T19:47:20.215Z,1.23
2022-09-09T19:49:51.506Z,1.77
2022-09-09T19:52:21.604Z,1.00
2022-09-09T19:54:49.761Z,3.08
2022-09-09T19:57:16.928Z,0.95
2022-09-09T19:59:44.103Z,6.55
2022-09-09T20:02:15.763Z,3.38
2022-09-09T20:04:46.533Z,1.33
2022-09-09T20:07:14.922Z,2.63
2022-09-09T20:09:42.408Z,0.93
2022-09-09T20:12:10.165Z,3.08
2022-09-09T20:14:40.641Z,0.77
2022-09-09T20:17:10.110Z,3.85
2022-09-09T20:19:37.451Z,0.60
2022-09-09T20:22:04.819Z,4.00
2022-09-09T20:24:31.980Z,1.48
2022-09-09T20:26:58.988Z,0.80
2022-09-09T20:29:26.186Z,3.00
2022-09-09T20:31:53.316Z,0.70
2022-09-09T20:34:25.870Z,1.75
2022-09-09T20:36:54.503Z,1.13
2022-09-09T20:39:22.514Z,4.97
2022-09-09T20:41:50.384Z,1.50
2022-09-09T20:44:21.765Z,1.30
2022-09-09T20:46:52.715Z,1.42
2022-09-09T20:49:22.514Z,0.70
2022-09-09T20:51:50.705Z,2.05
2022-09-09T20:54:30.287Z,2.33
2022-09-09T20:56:59.843Z,2.10
2022-09-09T20:59:28.876Z,1.45
2022-09-09T21:01:57.116Z,1.73
2022-09-09T21:04:26.146Z,3.97
2022-09-09T21:06:53.760Z,2.97
2022-09-09T21:09:24.454Z,1.33
2022-09-09T21:11:53.753Z,1.50
2022-09-09T21:14:22.270Z,4.40
2022-09-09T21:16:49.348Z,2.03
2022-09-09T21:19:19.582Z,1.20
2022-09-09T21:21:49.638Z,1.55
2022-09-09T21:24:17.184Z,1.65
2022-09-09T21:26:44.363Z,0.70
2022-09-09T21:29:13.145Z,1.60
2022-09-09T21:31:43.594Z,3.42
2022-09-09T21:34:13.460Z,2.30
2022-09-09T21:36:40.949Z,1.10
2022-09-09T21:39:08.047Z,4.25
2022-09-09T21:41:39.002Z,2.17
2022-09-09T21:44:09.099Z,3.17
2022-09-09T21:46:37.560Z,1.15
2022-09-09T21:49:05.189Z,1.25
2022-09-09T21:51:32.263Z,2.10
2022-09-09T21:53:59.777Z,1.58
2022-09-09T21:56:30.755Z,2.13
2022-09-09T21:59:03.784Z,1.73
2022-09-09T22:01:33.483Z,1.77
2022-09-09T22:04:01.453Z,2.22
2022-09-09T22:06:28.604Z,5.32
2022-09-09T22:08:57.293Z,1.58
2022-09-09T22:11:25.341Z,1.17
2022-09-09T22:13:55.996Z,1.85
2022-09-09T22:16:24.007Z,4.30
2022-09-09T22:18:57.718Z,5.13
2022-09-09T22:21:27.273Z,4.53
2022-09-09T22:24:03.997Z,5.38
2022-09-09T22:26:34.803Z,4.45
2022-09-09T22:29:02.093Z,6.72
2022-09-09T22:31:29.752Z,5.13
2022-09-09T22:33:57.258Z,5.50
2022-09-09T22:36:27.257Z,3.58
2022-09-09T22:38:57.964Z,8.98
2022-09-09T22:41:25.395Z,9.35
2022-09-09T22:43:53.581Z,9.60
2022-09-09T22:46:20.635Z,10.73
2022-09-09T22:48:48.236Z,17.52
2022-09-09T22:51:17.231Z,6.38
2022-09-09T22:53:45.705Z,7.70
2022-09-09T22:56:19.323Z,8.02
2022-09-09T22:58:47.720Z,7.95
2022-09-09T23:01:20.740Z,9.82
2022-09-09T23:03:49.706Z,9.27
2022-09-09T23:06:25.916Z,7.30
2022-09-09T23:09:00.133Z,13.27
2022-09-09T23:11:34.513Z,13.23
2022-09-09T23:14:05.919Z,8.15
2022-09-09T23:16:39.877Z,7.68
2022-09-09T23:19:10.833Z,8.85
2022-09-09T23:21:40.545Z,11.93
2022-09-09T23:24:10.812Z,9.85
2022-09-09T23:26:38.584Z,13.73
2022-09-09T23:29:06.098Z,16.52
2022-09-09T23:31:37.930Z,9.63
2022-09-09T23:34:06.118Z,10.07
2022-09-09T23:36:34.188Z,13.93
2022-09-09T23:39:06.868Z,12.48
2022-09-09T23:41:38.091Z,11.65
2022-09-09T23:44:06.387Z,12.90
2022-09-09T23:46:35.424Z,19.40
2022-09-09T23:49:03.828Z,13.20
2022-09-09T23:51:34.814Z,10.45
2022-09-09T23:54:04.904Z,8.23
2022-09-09T23:56:38.792Z,9.88
2022-09-09T23:59:07.067Z,11.45
